createdAt,value
2022-07-28T00:01:38.657Z,10.43
2022-07-28T00:04:09.910Z,10.41
2022-07-28T00:06:41.157Z,10.36
2022-07-28T00:09:12.155Z,10.30
2022-07-28T00:11:50.278Z,10.23
2022-07-28T00:14:26.660Z,10.20
2022-07-28T00:16:57.752Z,10.19
2022-07-28T00:19:28.766Z,10.17
2022-07-28T00:21:58.219Z,10.12
2022-07-28T00:24:29.160Z,10.08
2022-07-28T00:27:00.828Z,10.04
2022-07-28T00:29:49.175Z,10.04
2022-07-28T00:32:21.981Z,10.03
2022-07-28T00:34:53.612Z,10.02
2022-07-28T00:37:24.685Z,10.02
2022-07-28T00:39:57.074Z,9.98
2022-07-28T00:42:28.194Z,9.95
2022-07-28T00:44:57.375Z,9.90
2022-07-28T00:47:33.885Z,9.85
2022-07-28T00:50:05.830Z,9.83
2022-07-28T00:52:37.272Z,9.82
2022-07-28T00:55:09.022Z,9.80
2022-07-28T00:57:41.554Z,9.76
2022-07-28T01:00:14.193Z,9.73
2022-07-28T01:02:46.864Z,9.69
2022-07-28T01:05:18.776Z,9.66
2022-07-28T01:08:17.310Z,9.61
2022-07-28T01:10:57.274Z,9.55
2022-07-28T01:13:36.715Z,9.48
2022-07-28T01:16:08.939Z,9.44
2022-07-28T01:18:48.718Z,9.40
2022-07-28T01:21:26.710Z,9.38
2022-07-28T01:24:16.679Z,9.34
2022-07-28T01:26:58.382Z,9.29
2022-07-28T01:29:51.298Z,9.25
2022-07-28T01:32:26.229Z,9.27
2022-07-28T01:35:01.899Z,9.26
2022-07-28T01:37:40.804Z,9.26
2022-07-28T01:40:16.428Z,9.24
2022-07-28T01:42:50.553Z,9.22
2022-07-28T01:45:24.937Z,9.20
2022-07-28T01:47:58.275Z,9.19
2022-07-28T01:50:31.719Z,9.17
2022-07-28T01:53:04.340Z,9.13
2022-07-28T01:55:37.704Z,9.10
2022-07-28T01:58:11.976Z,9.06
2022-07-28T02:00:44.248Z,9.01
2022-07-28T02:03:16.132Z,8.98
2022-07-28T02:05:50.924Z,8.97
2022-07-28T02:08:23.802Z,8.96
2022-07-28T02:11:14.676Z,8.94
2022-07-28T02:13:47.662Z,8.90
2022-07-28T02:16:22.415Z,8.87
2022-07-28T02:18:56.417Z,8.83
2022-07-28T02:21:31.253Z,8.76
2022-07-28T02:24:02.617Z,8.73
2022-07-28T02:26:36.662Z,8.70
2022-07-28T02:29:22.280Z,8.68
2022-07-28T02:32:27.318Z,8.68
2022-07-28T02:35:04.786Z,8.67
2022-07-28T02:37:39.354Z,8.65
2022-07-28T02:40:14.843Z,8.60
2022-07-28T02:42:48.849Z,8.55
2022-07-28T02:45:22.802Z,8.53
2022-07-28T02:47:58.340Z,8.53
2022-07-28T02:50:30.944Z,8.54
2022-07-28T02:53:15.580Z,8.53
2022-07-28T02:55:50.392Z,8.50
2022-07-28T02:58:24.977Z,8.46
2022-07-28T03:00:56.704Z,8.43
2022-07-28T03:03:28.970Z,8.40
2022-07-28T03:06:00.267Z,8.40
2022-07-28T03:08:32.610Z,8.44
2022-07-28T03:11:13.769Z,8.45
2022-07-28T03:13:44.771Z,8.44
2022-07-28T03:16:15.921Z,8.43
2022-07-28T03:18:47.102Z,8.41
2022-07-28T03:21:18.203Z,8.34
2022-07-28T03:23:49.135Z,8.30
2022-07-28T03:26:24.843Z,8.30
2022-07-28T03:28:59.013Z,8.32
2022-07-28T03:31:33.014Z,8.32
2022-07-28T03:34:04.450Z,8.31
2022-07-28T03:36:41.399Z,8.29
2022-07-28T03:39:16.770Z,8.28
2022-07-28T03:41:48.656Z,8.27
2022-07-28T03:44:27.680Z,8.28
2022-07-28T03:47:00.122Z,8.34
2022-07-28T03:49:29.474Z,8.34
2022-07-28T03:52:00.437Z,8.31
2022-07-28T03:54:32.014Z,8.31
2022-07-28T03:57:02.929Z,8.31
2022-07-28T03:59:34.079Z,8.29
2022-07-28T04:02:03.638Z,8.30
2022-07-28T04:04:34.536Z,8.33
2022-07-28T04:07:05.427Z,8.38
2022-07-28T04:09:36.729Z,8.41
2022-07-28T04:12:08.762Z,8.44
2022-07-28T04:14:39.637Z,8.48
2022-07-28T04:17:10.826Z,8.51
2022-07-28T04:19:42.016Z,8.51
2022-07-28T04:22:12.988Z,8.50
2022-07-28T04:24:44.009Z,8.66
2022-07-28T04:27:16.157Z,8.98
2022-07-28T04:29:47.017Z,9.28
2022-07-28T04:32:17.856Z,9.59
2022-07-28T04:34:49.932Z,9.93
2022-07-28T04:37:21.024Z,10.28
2022-07-28T04:39:52.203Z,10.65
2022-07-28T04:42:23.090Z,11.00
2022-07-28T04:44:54.468Z,11.37
2022-07-28T04:47:25.603Z,11.68
2022-07-28T04:49:57.248Z,11.95
2022-07-28T04:52:28.245Z,12.20
2022-07-28T04:54:59.029Z,12.49
2022-07-28T04:57:30.126Z,12.87
2022-07-28T05:00:02.360Z,13.17
2022-07-28T05:02:33.440Z,13.55
2022-07-28T05:05:04.625Z,14.03
2022-07-28T05:07:35.752Z,14.46
2022-07-28T05:10:09.859Z,14.84
2022-07-28T05:12:40.842Z,15.06
2022-07-28T05:15:12.616Z,15.32
2022-07-28T05:17:43.631Z,15.64
2022-07-28T05:20:15.561Z,16.01
2022-07-28T05:22:48.115Z,16.29
2022-07-28T05:25:20.738Z,16.39
2022-07-28T05:27:53.034Z,16.19
2022-07-28T05:30:24.210Z,16.01
2022-07-28T05:32:59.366Z,15.78
2022-07-28T05:35:31.003Z,15.57
2022-07-28T05:38:01.980Z,15.38
2022-07-28T05:40:32.973Z,15.20
2022-07-28T05:43:03.899Z,15.08
2022-07-28T05:45:35.107Z,15.01
2022-07-28T05:48:06.732Z,14.98
2022-07-28T05:50:38.249Z,14.95
2022-07-28T05:53:09.428Z,14.96
2022-07-28T05:55:59.800Z,15.00
2022-07-28T05:58:32.038Z,15.04
2022-07-28T06:01:03.831Z,15.12
2022-07-28T06:03:41.797Z,15.18
2022-07-28T06:06:15.723Z,15.22
2022-07-28T06:08:49.678Z,15.28
2022-07-28T06:11:22.831Z,15.35
2022-07-28T06:13:54.829Z,15.41
2022-07-28T06:16:25.967Z,15.48
2022-07-28T06:18:57.206Z,15.57
2022-07-28T06:21:28.194Z,15.64
2022-07-28T06:23:58.968Z,15.73
2022-07-28T06:26:30.726Z,15.80
2022-07-28T06:29:01.493Z,15.90
2022-07-28T06:31:32.790Z,15.97
2022-07-28T06:34:03.705Z,16.05
2022-07-28T06:36:34.995Z,16.14
2022-07-28T06:39:06.143Z,16.21
2022-07-28T06:41:41.443Z,16.28
2022-07-28T06:44:12.697Z,16.37
2022-07-28T06:46:44.305Z,16.45
2022-07-28T06:49:15.831Z,16.51
2022-07-28T06:51:47.163Z,16.56
2022-07-28T06:54:18.872Z,16.61
2022-07-28T06:56:50.879Z,16.66
2022-07-28T06:59:21.834Z,16.71
2022-07-28T07:01:52.907Z,16.76
2022-07-28T07:04:23.812Z,16.83
2022-07-28T07:06:54.659Z,16.93
2022-07-28T07:09:25.555Z,17.00
2022-07-28T07:11:56.783Z,17.10
2022-07-28T07:14:31.135Z,17.21
2022-07-28T07:17:02.084Z,17.31
2022-07-28T07:19:33.073Z,17.38
2022-07-28T07:22:04.105Z,17.50
2022-07-28T07:24:35.416Z,17.62
2022-07-28T07:27:06.538Z,17.77
2022-07-28T07:29:37.729Z,17.90
2022-07-28T07:32:11.021Z,18.02
2022-07-28T07:34:42.475Z,18.15
2022-07-28T07:37:14.720Z,18.21
2022-07-28T07:39:45.791Z,18.28
2022-07-28T07:42:16.822Z,18.36
2022-07-28T07:44:50.039Z,18.44
2022-07-28T07:47:21.624Z,18.51
2022-07-28T07:49:52.701Z,18.55
2022-07-28T07:52:23.481Z,18.55
2022-07-28T07:54:54.294Z,18.56
2022-07-28T07:57:25.164Z,18.57
2022-07-28T07:59:56.023Z,18.60
2022-07-28T08:02:26.913Z,18.63
2022-07-28T08:04:57.972Z,18.69
2022-07-28T08:07:29.570Z,18.78
2022-07-28T08:10:00.589Z,18.87
2022-07-28T08:12:31.591Z,18.95
2022-07-28T08:15:02.649Z,19.02
2022-07-28T08:17:33.464Z,19.06
2022-07-28T08:20:04.785Z,19.10
2022-07-28T08:22:36.257Z,19.16
2022-07-28T08:25:09.052Z,19.25
2022-07-28T08:27:40.315Z,19.34
2022-07-28T08:30:15.008Z,19.32
2022-07-28T08:32:56.730Z,19.30
2022-07-28T08:35:34.350Z,19.32
2022-07-28T08:38:07.064Z,19.29
2022-07-28T08:40:43.084Z,19.28
2022-07-28T08:43:24.515Z,19.26
2022-07-28T08:45:58.482Z,19.24
2022-07-28T08:48:32.109Z,19.23
2022-07-28T08:51:06.365Z,19.32
2022-07-28T08:53:38.224Z,19.47
2022-07-28T08:56:13.369Z,19.59
2022-07-28T08:58:44.672Z,19.68
2022-07-28T09:01:15.764Z,19.78
2022-07-28T09:03:46.990Z,19.82
2022-07-28T09:06:18.648Z,19.94
2022-07-28T09:08:49.967Z,20.05
2022-07-28T09:11:21.143Z,20.14
2022-07-28T09:13:54.153Z,20.22
2022-07-28T09:16:25.452Z,20.24
2022-07-28T09:18:56.432Z,20.27
2022-07-28T09:21:27.626Z,20.29
2022-07-28T09:23:58.842Z,20.29
2022-07-28T09:26:29.851Z,20.34
2022-07-28T09:29:02.466Z,20.39
2022-07-28T09:31:33.331Z,20.42
2022-07-28T09:34:06.055Z,20.49
2022-07-28T09:36:42.256Z,20.53
2022-07-28T09:39:14.011Z,20.53
2022-07-28T09:41:55.368Z,20.56
2022-07-28T09:44:28.066Z,20.58
2022-07-28T09:46:59.432Z,20.63
2022-07-28T09:49:44.376Z,20.65
2022-07-28T09:52:16.051Z,20.74
2022-07-28T09:55:02.632Z,20.75
2022-07-28T09:57:36.269Z,20.84
2022-07-28T10:00:12.753Z,20.88
2022-07-28T10:02:52.128Z,20.93
2022-07-28T10:05:23.427Z,21.00
2022-07-28T10:07:54.139Z,21.06
2022-07-28T10:10:25.362Z,21.09
2022-07-28T10:13:07.314Z,21.10
2022-07-28T10:15:56.148Z,21.09
2022-07-28T10:18:27.056Z,21.09
2022-07-28T10:20:58.171Z,21.13
2022-07-28T10:23:29.350Z,21.14
2022-07-28T10:26:02.836Z,21.15
2022-07-28T10:28:41.960Z,21.14
2022-07-28T10:31:15.461Z,21.18
2022-07-28T10:33:52.177Z,21.27
2022-07-28T10:36:29.354Z,21.33
2022-07-28T10:39:07.861Z,21.41
2022-07-28T10:41:43.857Z,21.49
2022-07-28T10:44:18.314Z,21.51
2022-07-28T10:46:50.754Z,21.59
2022-07-28T10:49:22.200Z,21.62
2022-07-28T10:52:06.263Z,21.61
2022-07-28T10:54:50.076Z,21.65
2022-07-28T10:57:22.163Z,21.64
2022-07-28T11:00:25.842Z,21.64
2022-07-28T11:03:00.766Z,21.64
2022-07-28T11:05:34.643Z,21.67
2022-07-28T11:08:08.727Z,21.67
2022-07-28T11:10:51.243Z,21.71
2022-07-28T11:13:33.324Z,21.67
2022-07-28T11:16:22.109Z,21.67
2022-07-28T11:19:40.151Z,21.72
2022-07-28T11:22:34.288Z,21.79
2022-07-28T11:25:18.837Z,21.89
2022-07-28T11:28:06.839Z,21.95
2022-07-28T11:30:58.361Z,22.06
2022-07-28T11:33:58.223Z,22.12
2022-07-28T11:37:03.850Z,22.18
2022-07-28T11:39:41.236Z,22.18
2022-07-28T11:42:32.372Z,22.19
2022-07-28T11:45:26.536Z,22.27
2022-07-28T11:48:17.674Z,22.30
2022-07-28T11:51:13.138Z,22.28
2022-07-28T11:53:47.168Z,22.27
2022-07-28T11:56:24.979Z,22.29
2022-07-28T11:59:01.202Z,22.29
2022-07-28T12:01:36.926Z,22.27
2022-07-28T12:04:14.733Z,22.31
2022-07-28T12:06:49.538Z,22.37
2022-07-28T12:09:41.135Z,22.42
2022-07-28T12:12:13.655Z,22.45
2022-07-28T12:14:46.433Z,22.54
2022-07-28T12:17:17.359Z,22.60
2022-07-28T12:19:49.126Z,22.67
2022-07-28T12:22:20.452Z,22.70
2022-07-28T12:24:59.642Z,22.79
2022-07-28T12:27:32.094Z,22.93
2022-07-28T12:30:03.819Z,23.02
2022-07-28T12:32:36.336Z,23.08
2022-07-28T12:35:08.581Z,23.14
2022-07-28T12:37:39.829Z,23.18
2022-07-28T12:40:14.363Z,23.21
2022-07-28T12:42:46.400Z,23.26
2022-07-28T12:45:23.613Z,23.32
2022-07-28T12:47:55.041Z,23.40
2022-07-28T12:50:26.001Z,23.37
2022-07-28T12:53:13.714Z,23.29
2022-07-28T12:55:45.499Z,23.28
2022-07-28T12:58:28.925Z,23.35
2022-07-28T13:01:00.262Z,23.47
2022-07-28T13:03:33.906Z,23.56
2022-07-28T13:06:13.395Z,23.59
2022-07-28T13:08:46.010Z,23.62
2022-07-28T13:11:42.745Z,23.65
2022-07-28T13:14:08.912Z,23.67
2022-07-28T13:16:40.124Z,23.66
2022-07-28T13:19:24.236Z,23.73
2022-07-28T13:22:00.766Z,23.81
2022-07-28T13:24:35.135Z,23.90
2022-07-28T13:27:07.067Z,23.93
2022-07-28T13:29:38.228Z,23.91
2022-07-28T13:32:11.768Z,23.94
2022-07-28T13:34:43.539Z,23.94
2022-07-28T13:37:15.745Z,23.94
2022-07-28T13:39:52.201Z,23.96
2022-07-28T13:42:25.633Z,24.01
2022-07-28T13:44:56.507Z,23.99
2022-07-28T13:47:28.230Z,24.04
2022-07-28T13:50:11.238Z,24.09
2022-07-28T13:52:42.985Z,24.11
2022-07-28T13:55:17.777Z,24.20
2022-07-28T13:57:53.428Z,24.21
2022-07-28T14:00:27.836Z,24.20
2022-07-28T14:03:00.998Z,24.25
2022-07-28T14:05:33.704Z,24.26
2022-07-28T14:08:05.804Z,24.31
2022-07-28T14:10:36.933Z,24.38
2022-07-28T14:13:07.960Z,24.48
2022-07-28T14:15:39.288Z,24.65
2022-07-28T14:18:10.696Z,24.90
2022-07-28T14:20:41.879Z,25.28
2022-07-28T14:23:13.047Z,25.60
2022-07-28T14:25:49.239Z,25.91
2022-07-28T14:28:20.819Z,26.09
2022-07-28T14:30:51.708Z,26.33
2022-07-28T14:33:22.653Z,26.55
2022-07-28T14:35:53.353Z,26.67
2022-07-28T14:41:15.596Z,26.81
2022-07-28T14:43:47.146Z,26.88
2022-07-28T14:46:21.803Z,27.09
2022-07-28T14:48:53.183Z,27.29
2022-07-28T14:51:24.159Z,27.49
2022-07-28T14:53:57.265Z,27.65
2022-07-28T14:56:28.195Z,27.80
2022-07-28T14:59:01.787Z,27.85
2022-07-28T15:01:35.960Z,27.99
2022-07-28T15:04:07.659Z,28.20
2022-07-28T15:06:38.549Z,28.50
2022-07-28T15:09:09.687Z,28.71
2022-07-28T15:11:41.359Z,28.84
2022-07-28T15:14:12.683Z,28.73
2022-07-28T15:16:45.842Z,28.71
2022-07-28T15:19:17.242Z,28.73
2022-07-28T15:21:48.987Z,28.77
2022-07-28T15:24:22.312Z,28.80
2022-07-28T15:26:53.592Z,28.89
2022-07-28T15:29:24.771Z,29.09
2022-07-28T15:31:56.857Z,29.21
2022-07-28T15:34:29.502Z,29.42
2022-07-28T15:37:01.055Z,29.71
2022-07-28T15:39:32.400Z,30.01
2022-07-28T15:42:03.501Z,30.17
2022-07-28T15:44:34.994Z,30.23
2022-07-28T15:47:06.306Z,30.25
2022-07-28T15:49:37.421Z,30.35
2022-07-28T15:52:08.768Z,30.40
2022-07-28T15:54:39.836Z,30.47
2022-07-28T15:57:11.718Z,30.55
2022-07-28T15:59:50.006Z,30.57
2022-07-28T16:02:22.019Z,30.53
2022-07-28T16:04:54.129Z,30.46
2022-07-28T16:07:25.577Z,30.36
2022-07-28T16:09:57.606Z,30.32
2022-07-28T16:12:29.447Z,30.25
2022-07-28T16:15:00.501Z,30.19
2022-07-28T16:17:31.644Z,30.25
2022-07-28T16:20:03.261Z,30.25
2022-07-28T16:22:37.752Z,30.06
2022-07-28T16:25:16.523Z,29.94
2022-07-28T16:27:48.838Z,29.97
2022-07-28T16:30:20.400Z,30.06
2022-07-28T16:32:51.158Z,30.17
2022-07-28T16:35:21.905Z,30.33
2022-07-28T16:37:52.885Z,30.37
2022-07-28T16:40:23.689Z,30.49
2022-07-28T16:42:54.765Z,30.61
2022-07-28T16:45:30.709Z,30.74
2022-07-28T16:48:03.811Z,30.87
2022-07-28T16:50:35.073Z,30.99
2022-07-28T16:53:09.024Z,31.02
2022-07-28T16:55:40.225Z,30.99
2022-07-28T16:58:11.663Z,31.12
2022-07-28T17:00:43.238Z,31.15
2022-07-28T17:03:14.554Z,31.03
2022-07-28T17:05:45.878Z,30.81
2022-07-28T17:08:16.901Z,30.54
2022-07-28T17:10:49.868Z,30.38
2022-07-28T17:13:21.460Z,30.30
2022-07-28T17:15:52.368Z,30.23
2022-07-28T17:18:23.555Z,30.09
2022-07-28T17:20:54.479Z,29.81
2022-07-28T17:23:25.643Z,29.47
2022-07-28T17:26:51.574Z,29.15
2022-07-28T17:28:50.123Z,28.54
2022-07-28T17:31:21.416Z,28.33
2022-07-28T17:33:52.592Z,28.38
2022-07-28T17:36:23.757Z,28.47
2022-07-28T17:38:54.852Z,28.49
2022-07-28T17:41:26.609Z,28.47
2022-07-28T17:43:57.758Z,28.43
2022-07-28T17:46:28.673Z,28.31
2022-07-28T17:49:00.362Z,27.98
2022-07-28T17:51:31.323Z,27.53
2022-07-28T17:54:02.214Z,27.15
2022-07-28T17:56:33.502Z,26.85
2022-07-28T17:59:06.201Z,26.49
2022-07-28T18:01:39.961Z,26.09
2022-07-28T18:04:14.954Z,25.79
2022-07-28T18:06:46.812Z,25.56
2022-07-28T18:09:17.989Z,25.22
2022-07-28T18:11:57.357Z,24.85
2022-07-28T18:14:31.263Z,24.51
2022-07-28T18:17:02.286Z,24.20
2022-07-28T18:19:33.740Z,23.91
2022-07-28T18:22:05.366Z,23.63
2022-07-28T18:24:36.381Z,23.33
2022-07-28T18:27:07.892Z,23.10
2022-07-28T18:29:40.130Z,22.87
2022-07-28T18:32:12.319Z,22.65
2022-07-28T18:34:45.448Z,22.45
2022-07-28T18:37:16.432Z,22.25
2022-07-28T18:39:47.334Z,22.03
2022-07-28T18:42:18.482Z,21.86
2022-07-28T18:44:49.584Z,21.72
2022-07-28T18:47:20.636Z,21.59
2022-07-28T18:49:52.510Z,21.49
2022-07-28T18:52:23.663Z,21.39
2022-07-28T18:54:55.143Z,21.29
2022-07-28T18:57:26.255Z,21.21
2022-07-28T18:59:57.361Z,21.13
2022-07-28T19:02:28.454Z,21.06
2022-07-28T19:04:59.784Z,20.98
2022-07-28T19:07:30.604Z,20.90
2022-07-28T19:10:02.004Z,20.80
2022-07-28T19:12:34.610Z,20.70
2022-07-28T19:15:06.912Z,20.59
2022-07-28T19:17:39.975Z,20.51
2022-07-28T19:20:12.817Z,20.44
2022-07-28T19:22:43.843Z,20.37
2022-07-28T19:25:14.830Z,20.31
2022-07-28T19:27:45.753Z,20.25
2022-07-28T19:30:16.884Z,20.20
2022-07-28T19:32:47.807Z,20.13
2022-07-28T19:35:18.699Z,20.07
2022-07-28T19:37:50.806Z,20.00
2022-07-28T19:40:22.210Z,19.92
2022-07-28T19:42:53.558Z,19.86
2022-07-28T19:45:24.773Z,19.81
2022-07-28T19:47:55.729Z,19.76
2022-07-28T19:50:26.616Z,19.73
2022-07-28T19:52:57.599Z,19.70
2022-07-28T19:55:31.487Z,19.67
2022-07-28T19:58:02.313Z,19.63
2022-07-28T20:00:33.831Z,19.59
2022-07-28T20:03:06.325Z,19.56
2022-07-28T20:05:57.397Z,19.52
2022-07-28T20:08:28.470Z,19.46
2022-07-28T20:10:59.269Z,19.42
2022-07-28T20:13:30.493Z,19.38
2022-07-28T20:16:01.576Z,19.34
2022-07-28T20:18:32.572Z,19.31
2022-07-28T20:21:03.720Z,19.27
2022-07-28T20:23:34.831Z,19.22
2022-07-28T20:26:05.694Z,19.18
2022-07-28T20:28:37.034Z,19.09
2022-07-28T20:31:14.911Z,19.03
2022-07-28T20:33:48.119Z,18.92
2022-07-28T20:36:19.176Z,18.82
2022-07-28T20:38:50.504Z,18.71
2022-07-28T20:41:21.638Z,18.61
2022-07-28T20:44:18.310Z,18.51
2022-07-28T20:46:43.854Z,18.37
2022-07-28T20:49:14.916Z,18.26
2022-07-28T20:51:51.213Z,18.15
2022-07-28T20:54:22.557Z,18.02
2022-07-28T20:56:53.857Z,17.87
2022-07-28T20:59:27.648Z,17.78
2022-07-28T21:02:04.393Z,17.70
2022-07-28T21:04:35.426Z,17.64
2022-07-28T21:07:06.451Z,17.61
2022-07-28T21:09:37.633Z,17.57
2022-07-28T21:12:10.186Z,17.55
2022-07-28T21:14:41.106Z,17.52
2022-07-28T21:17:12.116Z,17.53
2022-07-28T21:19:43.212Z,17.51
2022-07-28T21:22:22.392Z,17.46
2022-07-28T21:24:55.620Z,17.41
2022-07-28T21:27:26.986Z,17.41
2022-07-28T21:32:28.251Z,17.38
2022-07-28T21:34:59.737Z,17.38
2022-07-28T21:37:31.154Z,17.35
2022-07-28T21:40:03.983Z,17.34
2022-07-28T21:42:35.294Z,17.31
2022-07-28T21:45:11.275Z,17.28
2022-07-28T21:47:42.905Z,17.25
2022-07-28T21:50:15.094Z,17.24
2022-07-28T21:52:46.097Z,17.23
2022-07-28T21:55:17.074Z,17.22
2022-07-28T21:57:49.576Z,17.19
2022-07-28T22:00:23.273Z,17.17
2022-07-28T22:02:54.182Z,17.16
2022-07-28T22:05:26.165Z,17.16
2022-07-28T22:07:57.150Z,17.15
2022-07-28T22:10:30.177Z,17.13
2022-07-28T22:13:01.259Z,17.10
2022-07-28T22:15:32.065Z,17.09
2022-07-28T22:18:03.005Z,17.08
2022-07-28T22:20:34.226Z,17.07
2022-07-28T22:23:29.108Z,17.08
2022-07-28T22:25:59.466Z,17.05
2022-07-28T22:28:31.011Z,16.98
2022-07-28T22:31:09.184Z,16.97
2022-07-28T22:33:41.539Z,16.94
2022-07-28T22:36:12.724Z,16.90
2022-07-28T22:38:43.605Z,16.86
2022-07-28T22:41:14.444Z,16.82
2022-07-28T22:43:45.793Z,16.79
2022-07-28T22:46:17.015Z,16.79
2022-07-28T22:48:48.439Z,16.82
2022-07-28T22:51:19.324Z,16.80
2022-07-28T22:53:50.353Z,16.81
2022-07-28T22:56:21.507Z,16.80
2022-07-28T22:58:53.780Z,16.77
2022-07-28T23:01:24.987Z,16.79
2022-07-28T23:03:58.478Z,16.79
2022-07-28T23:06:29.581Z,16.78
2022-07-28T23:09:00.544Z,16.76
2022-07-28T23:11:31.484Z,16.75
2022-07-28T23:14:02.422Z,16.70
2022-07-28T23:16:34.117Z,16.62
2022-07-28T23:19:04.973Z,16.54
2022-07-28T23:21:39.282Z,16.46
2022-07-28T23:24:10.396Z,16.41
2022-07-28T23:26:41.519Z,16.39
2022-07-28T23:29:12.500Z,16.38
2022-07-28T23:31:43.610Z,16.35
2022-07-28T23:34:14.764Z,16.31
2022-07-28T23:36:47.963Z,16.29
2022-07-28T23:39:18.967Z,16.26
2022-07-28T23:41:50.409Z,16.26
2022-07-28T23:44:21.185Z,16.21
2022-07-28T23:46:52.301Z,16.15
2022-07-28T23:49:23.512Z,16.11
2022-07-28T23:51:54.614Z,16.08
2022-07-28T23:54:25.679Z,16.01
2022-07-28T23:56:57.375Z,15.99
2022-07-28T23:59:28.596Z,15.97
